createdAt,value
2023-03-20T00:01:21.729Z,88.15
2023-03-20T00:03:26.695Z,87.76
2023-03-20T00:05:32.571Z,87.68
2023-03-20T00:07:38.238Z,87.57
2023-03-20T00:09:42.924Z,87.61
2023-03-20T00:11:50.968Z,87.70
2023-03-20T00:14:00.208Z,87.53
2023-03-20T00:16:05.742Z,87.65
2023-03-20T00:18:18.455Z,87.57
2023-03-20T00:20:23.930Z,87.62
2023-03-20T00:22:29.577Z,87.80
2023-03-20T00:24:34.257Z,87.81
2023-03-20T00:26:40.212Z,88.13
2023-03-20T00:28:46.789Z,87.77
2023-03-20T00:30:53.956Z,87.85
2023-03-20T00:33:00.150Z,87.71
2023-03-20T00:35:16.560Z,87.83
2023-03-20T00:37:21.187Z,87.75
2023-03-20T00:39:26.579Z,88.04
2023-03-20T00:41:34.270Z,87.76
2023-03-20T00:43:39.023Z,88.32
2023-03-20T00:45:43.922Z,88.07
2023-03-20T00:47:53.155Z,88.32
2023-03-20T00:49:58.686Z,88.23
2023-03-20T00:52:04.979Z,88.19
2023-03-20T00:54:17.129Z,88.14
2023-03-20T00:56:33.373Z,87.79
2023-03-20T00:58:38.888Z,87.96
2023-03-20T01:00:46.138Z,87.74
2023-03-20T01:02:54.460Z,88.03
2023-03-20T01:04:59.863Z,87.71
2023-03-20T01:07:04.646Z,88.10
2023-03-20T01:09:09.775Z,87.97
2023-03-20T01:11:16.506Z,87.56
2023-03-20T01:13:24.389Z,87.74
2023-03-20T01:15:33.859Z,87.29
2023-03-20T01:17:39.156Z,87.58
2023-03-20T01:19:46.733Z,87.44
2023-03-20T01:21:51.631Z,87.56
2023-03-20T01:23:56.216Z,87.83
2023-03-20T01:26:00.980Z,87.83
2023-03-20T01:28:17.082Z,87.82
2023-03-20T01:30:25.448Z,88.10
2023-03-20T01:32:30.044Z,88.06
2023-03-20T01:34:36.201Z,87.93
2023-03-20T01:36:52.568Z,88.09
2023-03-20T01:39:00.034Z,88.35
2023-03-20T01:41:08.789Z,88.34
2023-03-20T01:43:18.646Z,88.16
2023-03-20T01:45:27.244Z,87.94
2023-03-20T01:47:32.304Z,88.13
2023-03-20T01:50:19.124Z,88.52
2023-03-20T01:52:26.945Z,88.02
2023-03-20T01:54:34.805Z,88.19
2023-03-20T01:56:44.679Z,88.23
2023-03-20T01:58:54.411Z,88.19
2023-03-20T02:00:59.240Z,88.10
2023-03-20T02:03:04.175Z,87.81
2023-03-20T02:05:12.073Z,87.86
2023-03-20T02:07:21.763Z,87.86
2023-03-20T02:09:29.049Z,87.27
2023-03-20T02:11:34.425Z,87.51
2023-03-20T02:13:39.595Z,87.09
2023-03-20T02:16:03.012Z,87.13
2023-03-20T02:18:07.632Z,87.05
2023-03-20T02:20:24.485Z,87.15
2023-03-20T02:23:06.379Z,87.10
2023-03-20T02:25:53.966Z,87.41
2023-03-20T02:28:22.838Z,87.39
2023-03-20T02:30:49.555Z,87.14
2023-03-20T02:33:26.356Z,87.09
2023-03-20T02:36:10.766Z,87.19
2023-03-20T02:38:35.899Z,87.40
2023-03-20T02:40:46.991Z,87.36
2023-03-20T02:42:58.941Z,87.43
2023-03-20T02:45:16.615Z,87.02
2023-03-20T02:47:26.625Z,87.28
2023-03-20T02:49:56.164Z,87.39
2023-03-20T02:52:06.075Z,87.46
2023-03-20T02:54:20.698Z,86.81
2023-03-20T02:56:31.242Z,86.96
2023-03-20T02:58:41.890Z,87.02
2023-03-20T03:00:53.288Z,86.80
2023-03-20T03:03:04.307Z,87.50
2023-03-20T03:05:19.072Z,87.14
2023-03-20T03:07:28.346Z,87.36
2023-03-20T03:09:41.488Z,87.36
2023-03-20T03:11:49.510Z,87.61
2023-03-20T03:13:57.588Z,87.43
2023-03-20T03:16:06.815Z,87.10
2023-03-20T03:18:17.392Z,87.43
2023-03-20T03:20:26.193Z,87.41
2023-03-20T03:22:32.038Z,87.52
2023-03-20T03:24:42.046Z,87.56
2023-03-20T03:26:47.205Z,87.95
2023-03-20T03:28:55.840Z,87.50
2023-03-20T03:31:02.145Z,87.55
2023-03-20T03:33:17.275Z,87.37
2023-03-20T03:35:24.757Z,87.57
2023-03-20T03:37:44.166Z,87.79
2023-03-20T03:39:56.654Z,87.70
2023-03-20T03:42:10.567Z,87.69
2023-03-20T03:44:23.357Z,88.04
2023-03-20T03:46:34.486Z,87.56
2023-03-20T03:48:45.160Z,87.93
2023-03-20T03:50:57.318Z,88.07
2023-03-20T03:53:07.486Z,87.87
2023-03-20T03:55:19.389Z,88.12
2023-03-20T03:57:31.268Z,88.18
2023-03-20T03:59:39.864Z,88.18
2023-03-20T04:01:45.612Z,88.00
2023-03-20T04:03:54.869Z,88.36
2023-03-20T04:06:01.619Z,88.54
2023-03-20T04:08:11.135Z,88.20
2023-03-20T04:10:19.402Z,88.63
2023-03-20T04:12:38.106Z,88.41
2023-03-20T04:14:42.773Z,88.40
2023-03-20T04:16:47.481Z,88.22
2023-03-20T04:18:52.853Z,88.40
2023-03-20T04:20:57.501Z,88.76
2023-03-20T04:23:02.212Z,88.57
2023-03-20T04:25:08.565Z,88.20
2023-03-20T04:27:17.024Z,88.40
2023-03-20T04:29:21.746Z,88.37
2023-03-20T04:31:26.448Z,88.59
2023-03-20T04:33:32.253Z,88.29
2023-03-20T04:35:38.841Z,88.72
2023-03-20T04:37:44.279Z,88.74
2023-03-20T04:39:49.877Z,88.73
2023-03-20T04:41:54.638Z,88.77
2023-03-20T04:44:01.960Z,88.67
2023-03-20T04:46:06.921Z,88.67
2023-03-20T04:48:12.014Z,88.61
2023-03-20T04:50:16.899Z,88.70
2023-03-20T04:52:21.645Z,88.50
2023-03-20T04:54:26.422Z,88.76
2023-03-20T04:56:31.086Z,88.51
2023-03-20T04:58:36.937Z,88.71
2023-03-20T05:00:45.469Z,88.69
2023-03-20T05:02:50.355Z,88.68
2023-03-20T05:04:55.037Z,88.56
2023-03-20T05:06:59.663Z,89.09
2023-03-20T05:09:04.541Z,88.79
2023-03-20T05:11:10.633Z,88.46
2023-03-20T05:13:15.589Z,88.38
2023-03-20T05:15:20.816Z,87.93
2023-03-20T05:17:28.127Z,88.44
2023-03-20T05:19:32.947Z,88.36
2023-03-20T05:21:37.712Z,88.10
2023-03-20T05:23:42.549Z,88.52
2023-03-20T05:25:47.758Z,88.71
2023-03-20T05:27:52.603Z,88.67
2023-03-20T05:29:57.333Z,88.36
2023-03-20T05:32:01.956Z,88.75
2023-03-20T05:34:09.151Z,88.31
2023-03-20T05:36:16.454Z,88.59
2023-03-20T05:38:22.794Z,88.23
2023-03-20T05:40:27.651Z,87.93
2023-03-20T05:42:32.482Z,88.20
2023-03-20T05:44:37.094Z,88.02
2023-03-20T05:46:44.074Z,88.29
2023-03-20T05:48:49.286Z,88.50
2023-03-20T05:50:56.613Z,88.36
2023-03-20T05:53:01.804Z,88.17
2023-03-20T05:55:07.568Z,88.32
2023-03-20T05:57:12.301Z,88.15
2023-03-20T05:59:17.208Z,88.12
2023-03-20T06:01:22.738Z,88.27
2023-03-20T06:03:27.537Z,88.01
2023-03-20T06:05:32.252Z,87.97
2023-03-20T06:07:40.561Z,87.99
2023-03-20T06:09:48.475Z,88.11
2023-03-20T06:11:53.261Z,87.90
2023-03-20T06:13:58.777Z,87.86
2023-03-20T06:16:03.627Z,87.53
2023-03-20T06:18:08.633Z,87.69
2023-03-20T06:20:18.032Z,87.85
2023-03-20T06:22:22.829Z,87.70
2023-03-20T06:24:31.167Z,87.50
2023-03-20T06:26:37.584Z,87.68
2023-03-20T06:28:42.672Z,86.83
2023-03-20T06:30:47.574Z,86.57
2023-03-20T06:32:53.172Z,86.88
2023-03-20T06:34:57.810Z,86.94
2023-03-20T06:37:04.545Z,86.82
2023-03-20T06:39:11.864Z,86.60
2023-03-20T06:41:33.761Z,86.56
2023-03-20T06:43:39.753Z,86.62
2023-03-20T06:45:44.779Z,86.57
2023-03-20T06:47:50.050Z,86.61
2023-03-20T06:49:54.787Z,86.11
2023-03-20T06:51:59.507Z,86.40
2023-03-20T06:54:06.754Z,85.95
2023-03-20T06:56:14.880Z,86.33
2023-03-20T06:58:22.441Z,86.16
2023-03-20T07:00:27.637Z,85.51
2023-03-20T07:02:32.613Z,85.72
2023-03-20T07:04:37.459Z,85.71
2023-03-20T07:06:42.748Z,84.98
2023-03-20T07:08:47.466Z,84.53
2023-03-20T07:10:52.528Z,84.62
2023-03-20T07:12:57.610Z,84.49
2023-03-20T07:15:05.950Z,84.67
2023-03-20T07:17:11.831Z,84.98
2023-03-20T07:19:16.554Z,84.11
2023-03-20T07:21:24.764Z,84.84
2023-03-20T07:23:29.387Z,84.69
2023-03-20T07:25:42.112Z,84.54
2023-03-20T07:27:50.909Z,84.03
2023-03-20T07:29:55.906Z,84.40
2023-03-20T07:32:04.408Z,84.06
2023-03-20T07:34:09.195Z,84.78
2023-03-20T07:36:16.665Z,84.46
2023-03-20T07:38:21.343Z,84.50
2023-03-20T07:40:26.055Z,85.42
2023-03-20T07:42:30.900Z,85.17
2023-03-20T07:44:35.794Z,85.41
2023-03-20T07:46:41.009Z,85.85
2023-03-20T07:48:48.313Z,85.94
2023-03-20T07:50:53.310Z,86.08
2023-03-20T07:52:58.292Z,86.30
2023-03-20T07:55:03.103Z,86.00
2023-03-20T07:57:07.864Z,86.29
2023-03-20T07:59:12.991Z,86.73
2023-03-20T08:01:18.012Z,87.27
2023-03-20T08:03:22.749Z,87.75
2023-03-20T08:05:32.564Z,88.10
2023-03-20T08:07:37.356Z,88.23
2023-03-20T08:09:42.411Z,88.22
2023-03-20T08:11:47.661Z,88.42
2023-03-20T08:13:52.434Z,88.97
2023-03-20T08:15:57.516Z,88.23
2023-03-20T08:18:02.219Z,88.42
2023-03-20T08:20:07.961Z,88.91
2023-03-20T08:22:15.324Z,89.14
2023-03-20T08:24:20.570Z,88.92
2023-03-20T08:26:25.654Z,89.50
2023-03-20T08:28:46.286Z,89.58
2023-03-20T08:30:52.080Z,89.63
2023-03-20T08:32:58.402Z,89.00
2023-03-20T08:35:03.168Z,89.35
2023-03-20T08:37:08.232Z,89.30
2023-03-20T08:39:18.370Z,89.15
2023-03-20T08:41:23.153Z,89.08
2023-03-20T08:43:27.824Z,89.15
2023-03-20T08:45:32.487Z,89.43
2023-03-20T08:47:40.167Z,89.52
2023-03-20T08:49:45.265Z,89.31
2023-03-20T08:51:50.147Z,89.89
2023-03-20T08:53:54.993Z,89.39
2023-03-20T08:56:02.480Z,89.38
2023-03-20T08:58:07.302Z,89.38
2023-03-20T09:00:15.721Z,89.36
2023-03-20T09:02:20.499Z,90.09
2023-03-20T09:04:25.796Z,89.67
2023-03-20T09:06:31.225Z,89.19
2023-03-20T09:08:36.104Z,89.52
2023-03-20T09:10:41.064Z,89.95
2023-03-20T09:12:48.459Z,89.37
2023-03-20T09:14:53.200Z,89.63
2023-03-20T09:16:58.014Z,89.92
2023-03-20T09:19:02.739Z,88.93
2023-03-20T09:21:12.033Z,90.47
2023-03-20T09:23:16.874Z,89.77
2023-03-20T09:25:24.695Z,89.76
2023-03-20T09:27:29.910Z,90.26
2023-03-20T09:29:37.344Z,90.54
2023-03-20T09:31:44.084Z,90.57
2023-03-20T09:33:50.322Z,90.53
2023-03-20T09:35:55.070Z,90.35
2023-03-20T09:37:59.763Z,90.26
2023-03-20T09:40:05.815Z,89.71
2023-03-20T09:42:26.085Z,89.76
2023-03-20T09:44:49.061Z,89.34
2023-03-20T09:47:20.189Z,89.61
2023-03-20T09:49:37.022Z,89.48
2023-03-20T09:51:48.006Z,89.31
2023-03-20T09:53:59.885Z,89.06
2023-03-20T09:56:06.078Z,88.26
2023-03-20T09:58:18.346Z,87.88
2023-03-20T10:00:31.379Z,88.39
2023-03-20T10:02:42.516Z,88.58
2023-03-20T10:04:50.310Z,88.66
2023-03-20T10:06:57.740Z,87.94
2023-03-20T10:09:05.302Z,88.07
2023-03-20T10:11:28.009Z,87.81
2023-03-20T10:13:52.402Z,86.78
2023-03-20T10:16:07.026Z,87.58
2023-03-20T10:18:21.514Z,87.55
2023-03-20T10:20:35.023Z,88.47
2023-03-20T10:22:46.089Z,88.05
2023-03-20T10:24:57.111Z,87.61
2023-03-20T10:27:07.986Z,86.89
2023-03-20T10:29:23.559Z,87.33
2023-03-20T10:31:43.226Z,87.79
2023-03-20T10:34:00.643Z,87.59
2023-03-20T10:36:21.715Z,87.38
2023-03-20T10:38:34.602Z,87.94
2023-03-20T10:40:41.808Z,87.01
2023-03-20T10:42:50.851Z,87.13
2023-03-20T10:44:59.742Z,87.63
2023-03-20T10:47:10.328Z,87.44
2023-03-20T10:49:21.276Z,87.78
2023-03-20T10:51:30.659Z,88.73
2023-03-20T10:53:40.249Z,87.48
2023-03-20T10:55:47.618Z,87.09
2023-03-20T10:57:59.013Z,87.49
2023-03-20T11:00:05.294Z,87.73
2023-03-20T11:02:19.702Z,87.65
2023-03-20T11:04:25.212Z,87.82
2023-03-20T11:06:34.677Z,88.06
2023-03-20T11:08:46.740Z,88.72
2023-03-20T11:11:02.371Z,88.16
2023-03-20T11:13:25.741Z,87.90
2023-03-20T11:15:31.021Z,87.20
2023-03-20T11:17:38.417Z,86.33
2023-03-20T11:19:44.882Z,87.14
2023-03-20T11:21:52.346Z,86.52
2023-03-20T11:23:57.625Z,86.40
2023-03-20T11:26:04.932Z,86.61
2023-03-20T11:28:23.189Z,86.61
2023-03-20T11:30:28.105Z,85.46
2023-03-20T11:32:36.275Z,86.57
2023-03-20T11:34:43.894Z,87.22
2023-03-20T11:37:09.204Z,86.94
2023-03-20T11:39:19.195Z,86.14
2023-03-20T11:41:28.615Z,85.94
2023-03-20T11:43:41.538Z,86.93
2023-03-20T11:45:49.070Z,86.95
2023-03-20T11:47:58.551Z,86.95
2023-03-20T11:50:09.329Z,86.67
2023-03-20T11:52:17.067Z,87.07
2023-03-20T11:54:25.303Z,87.51
2023-03-20T11:56:33.061Z,87.60
2023-03-20T11:58:40.641Z,87.51
2023-03-20T12:00:46.255Z,88.07
2023-03-20T12:02:53.106Z,88.35
2023-03-20T12:05:12.711Z,88.59
2023-03-20T12:07:23.778Z,88.86
2023-03-20T12:09:54.824Z,89.04
2023-03-20T12:12:04.065Z,89.49
2023-03-20T12:14:16.507Z,89.83
2023-03-20T12:16:25.793Z,90.29
2023-03-20T12:18:39.189Z,90.40
2023-03-20T12:20:52.748Z,90.81
2023-03-20T12:23:04.429Z,91.25
2023-03-20T12:25:20.215Z,91.21
2023-03-20T12:27:32.911Z,91.39
2023-03-20T12:29:46.766Z,91.64
2023-03-20T12:31:55.176Z,91.55
2023-03-20T12:34:04.441Z,91.66
2023-03-20T12:36:16.753Z,91.75
2023-03-20T12:38:29.873Z,91.52
2023-03-20T12:40:39.360Z,92.13
2023-03-20T12:43:00.281Z,91.92
2023-03-20T12:45:13.618Z,91.94
2023-03-20T12:47:36.175Z,91.98
2023-03-20T12:49:53.154Z,93.00
2023-03-20T12:52:09.925Z,92.99
2023-03-20T12:54:27.296Z,93.22
2023-03-20T12:56:51.741Z,92.52
2023-03-20T12:59:02.334Z,93.04
2023-03-20T13:01:15.988Z,92.76
2023-03-20T13:03:37.223Z,93.37
2023-03-20T13:05:50.611Z,92.85
2023-03-20T13:08:27.654Z,93.27
2023-03-20T13:10:40.131Z,93.08
2023-03-20T13:13:01.860Z,93.11
2023-03-20T13:15:21.662Z,93.26
2023-03-20T13:17:34.877Z,92.82
2023-03-20T13:19:51.968Z,93.23
2023-03-20T13:22:00.696Z,93.66
2023-03-20T13:24:23.374Z,93.56
2023-03-20T13:26:39.257Z,93.52
2023-03-20T13:29:03.262Z,93.52
2023-03-20T13:31:20.400Z,93.53
2023-03-20T13:33:46.528Z,93.31
2023-03-20T13:36:00.485Z,94.01
2023-03-20T13:38:12.692Z,93.64
2023-03-20T13:40:25.991Z,93.87
2023-03-20T13:42:35.739Z,93.70
2023-03-20T13:44:45.875Z,93.93
2023-03-20T13:46:53.425Z,94.13
2023-03-20T13:49:05.273Z,94.53
2023-03-20T13:51:20.187Z,94.69
2023-03-20T13:53:34.386Z,94.71
2023-03-20T13:55:50.557Z,94.83
2023-03-20T13:58:21.344Z,94.68
2023-03-20T14:00:34.346Z,95.17
2023-03-20T14:02:49.485Z,94.82
2023-03-20T14:05:00.573Z,94.89
2023-03-20T14:07:05.598Z,95.21
2023-03-20T14:09:29.704Z,94.85
2023-03-20T14:11:41.700Z,95.10
2023-03-20T14:13:54.601Z,95.59
2023-03-20T14:16:07.410Z,95.24
2023-03-20T14:18:19.156Z,95.70
2023-03-20T14:20:35.132Z,95.66
2023-03-20T14:22:44.753Z,95.29
2023-03-20T14:25:09.060Z,95.43
2023-03-20T14:27:36.810Z,95.81
2023-03-20T14:29:57.665Z,95.91
2023-03-20T14:32:12.015Z,95.33
2023-03-20T14:34:25.469Z,95.70
2023-03-20T14:36:45.432Z,96.09
2023-03-20T14:39:13.095Z,95.85
2023-03-20T14:41:28.961Z,95.35
2023-03-20T14:44:00.741Z,95.66
2023-03-20T14:46:13.824Z,95.45
2023-03-20T14:48:38.816Z,95.47
2023-03-20T14:51:00.510Z,95.45
2023-03-20T14:53:25.272Z,95.22
2023-03-20T14:59:29.832Z,95.66
2023-03-20T15:02:12.185Z,95.44
2023-03-20T15:04:56.598Z,95.86
2023-03-20T15:07:03.898Z,96.20
2023-03-20T15:09:12.202Z,95.63
2023-03-20T15:11:17.953Z,95.88
2023-03-20T15:13:26.798Z,95.60
2023-03-20T15:15:35.546Z,95.77
2023-03-20T15:17:42.932Z,95.98
2023-03-20T15:19:52.615Z,95.89
2023-03-20T15:21:58.279Z,95.84
2023-03-20T15:24:04.372Z,95.91
2023-03-20T15:26:11.066Z,96.08
2023-03-20T15:28:22.720Z,96.07
2023-03-20T15:30:29.049Z,96.63
2023-03-20T15:32:38.844Z,96.67
2023-03-20T15:34:47.557Z,96.57
2023-03-20T15:36:55.782Z,96.25
2023-03-20T15:39:14.160Z,96.09
2023-03-20T15:41:30.338Z,96.33
2023-03-20T15:43:38.439Z,96.17
2023-03-20T15:45:46.640Z,96.53
2023-03-20T15:47:54.133Z,96.67
2023-03-20T15:50:02.414Z,96.75
2023-03-20T15:52:11.100Z,96.64
2023-03-20T15:54:19.988Z,96.74
2023-03-20T15:56:29.419Z,96.84
2023-03-20T15:58:34.717Z,96.90
2023-03-20T16:00:45.279Z,96.88
2023-03-20T16:02:53.670Z,96.85
2023-03-20T16:04:58.710Z,96.61
2023-03-20T16:07:06.919Z,96.60
2023-03-20T16:09:13.357Z,96.76
2023-03-20T16:11:21.955Z,96.96
2023-03-20T16:13:27.855Z,96.39
2023-03-20T16:15:34.235Z,96.34
2023-03-20T16:17:41.770Z,96.57
2023-03-20T16:19:49.671Z,96.04
2023-03-20T16:21:56.529Z,95.57
2023-03-20T16:24:02.736Z,95.94
2023-03-20T16:26:11.970Z,95.71
2023-03-20T16:28:19.402Z,95.69
2023-03-20T16:30:30.196Z,95.50
2023-03-20T16:32:41.277Z,95.68
2023-03-20T16:34:54.359Z,95.88
2023-03-20T16:37:02.300Z,95.72
2023-03-20T16:39:12.340Z,95.90
2023-03-20T16:41:21.782Z,95.95
2023-03-20T16:43:30.728Z,96.19
2023-03-20T16:45:38.559Z,96.19
2023-03-20T16:47:43.614Z,95.89
2023-03-20T16:50:24.435Z,96.10
2023-03-20T16:52:31.564Z,95.87
2023-03-20T16:54:46.176Z,95.80
2023-03-20T16:56:56.150Z,95.78
2023-03-20T16:59:02.299Z,95.99
2023-03-20T17:01:09.949Z,95.88
2023-03-20T17:03:20.354Z,96.03
2023-03-20T17:05:38.492Z,96.10
2023-03-20T17:07:48.026Z,95.97
2023-03-20T17:10:00.218Z,96.07
2023-03-20T17:12:08.305Z,96.14
2023-03-20T17:14:21.052Z,95.83
2023-03-20T17:16:27.353Z,95.71
2023-03-20T17:18:32.681Z,95.63
2023-03-20T17:20:40.315Z,95.89
2023-03-20T17:22:45.308Z,95.98
2023-03-20T17:24:50.014Z,95.94
2023-03-20T17:26:57.830Z,96.11
2023-03-20T17:29:02.566Z,96.41
2023-03-20T17:31:07.954Z,96.42
2023-03-20T17:33:16.547Z,96.51
2023-03-20T17:35:21.298Z,96.81
2023-03-20T17:37:30.327Z,96.62
2023-03-20T17:39:35.333Z,96.68
2023-03-20T17:41:42.162Z,96.60
2023-03-20T17:43:53.112Z,96.63
2023-03-20T17:45:58.032Z,96.95
2023-03-20T17:48:02.769Z,96.91
2023-03-20T17:50:08.641Z,96.78
2023-03-20T17:52:17.737Z,96.87
2023-03-20T17:54:25.554Z,96.76
2023-03-20T17:56:32.811Z,96.85
2023-03-20T17:58:37.960Z,96.79
2023-03-20T18:00:42.660Z,96.86
2023-03-20T18:02:47.454Z,96.81
2023-03-20T18:04:52.655Z,96.54
2023-03-20T18:06:57.580Z,96.57
2023-03-20T18:09:04.302Z,96.34
2023-03-20T18:11:13.569Z,96.32
2023-03-20T18:13:21.251Z,96.66
2023-03-20T18:15:26.599Z,96.56
2023-03-20T18:17:31.501Z,96.80
2023-03-20T18:19:37.292Z,96.74
2023-03-20T18:21:42.073Z,96.96
2023-03-20T18:23:50.776Z,96.82
2023-03-20T18:25:55.740Z,96.78
2023-03-20T18:28:05.045Z,96.88
2023-03-20T18:30:19.336Z,96.90
2023-03-20T18:32:24.107Z,96.88
2023-03-20T18:34:28.939Z,96.52
2023-03-20T18:36:34.287Z,96.83
2023-03-20T18:38:39.236Z,97.01
2023-03-20T18:40:47.374Z,96.92
2023-03-20T18:42:52.458Z,97.06
2023-03-20T18:45:00.473Z,97.18
2023-03-20T18:47:05.236Z,97.48
2023-03-20T18:49:10.513Z,97.56
2023-03-20T18:51:17.866Z,97.61
2023-03-20T18:53:22.878Z,97.64
2023-03-20T18:55:29.528Z,97.34
2023-03-20T18:57:36.719Z,97.66
2023-03-20T18:59:41.508Z,97.42
2023-03-20T19:01:49.563Z,97.90
2023-03-20T19:03:55.758Z,97.75
2023-03-20T19:06:02.363Z,97.61
2023-03-20T19:08:07.670Z,97.74
2023-03-20T19:10:28.553Z,97.60
2023-03-20T19:12:33.377Z,97.82
2023-03-20T19:14:44.025Z,97.80
2023-03-20T19:16:51.559Z,97.83
2023-03-20T19:18:58.881Z,97.91
2023-03-20T19:21:04.605Z,98.06
2023-03-20T19:23:17.857Z,97.84
2023-03-20T19:25:24.775Z,97.94
2023-03-20T19:27:29.968Z,97.82
2023-03-20T19:29:35.221Z,97.61
2023-03-20T19:31:41.766Z,97.67
2023-03-20T19:33:59.961Z,97.51
2023-03-20T19:36:05.000Z,97.61
2023-03-20T19:38:11.477Z,97.84
2023-03-20T19:40:27.849Z,97.88
2023-03-20T19:42:59.799Z,97.87
2023-03-20T19:45:02.719Z,98.00
2023-03-20T19:47:07.967Z,97.74
2023-03-20T19:49:30.230Z,97.75
2023-03-20T19:51:35.571Z,98.05
2023-03-20T19:53:40.725Z,97.82
2023-03-20T19:55:47.642Z,97.47
2023-03-20T19:57:54.619Z,97.71
2023-03-20T20:00:43.820Z,97.43
2023-03-20T20:02:24.772Z,97.64
2023-03-20T20:04:39.308Z,97.51
2023-03-20T20:06:47.972Z,97.20
2023-03-20T20:08:53.949Z,97.41
2023-03-20T20:10:58.925Z,97.79
2023-03-20T20:13:03.766Z,97.77
2023-03-20T20:15:10.283Z,97.79
2023-03-20T20:17:15.531Z,97.80
2023-03-20T20:19:20.930Z,97.94
2023-03-20T20:22:17.062Z,98.13
2023-03-20T20:23:57.206Z,97.82
2023-03-20T20:26:05.153Z,97.57
2023-03-20T20:28:13.300Z,97.51
2023-03-20T20:30:20.873Z,97.77
2023-03-20T20:32:28.056Z,97.79
2023-03-20T20:39:27.268Z,97.75
2023-03-20T20:41:33.174Z,97.89
2023-03-20T20:44:11.586Z,97.86
2023-03-20T20:46:02.734Z,97.88
2023-03-20T20:48:10.423Z,97.82
2023-03-20T20:50:16.932Z,97.79
2023-03-20T20:52:24.362Z,97.70
2023-03-20T20:54:29.640Z,97.99
2023-03-20T20:56:35.948Z,97.57
2023-03-20T20:58:40.620Z,97.74
2023-03-20T21:00:52.572Z,97.47
2023-03-20T21:02:59.840Z,97.67
2023-03-20T21:05:04.667Z,97.68
2023-03-20T21:07:11.376Z,97.43
2023-03-20T21:09:19.512Z,97.57
2023-03-20T21:11:25.384Z,97.54
2023-03-20T21:13:30.503Z,97.60
2023-03-20T21:15:36.720Z,97.43
2023-03-20T21:17:50.424Z,97.47
2023-03-20T21:20:04.347Z,97.38
2023-03-20T21:22:10.256Z,97.65
2023-03-20T21:24:31.707Z,97.43
2023-03-20T21:26:41.901Z,97.49
2023-03-20T21:28:47.236Z,97.64
2023-03-20T21:31:20.860Z,97.76
2023-03-20T21:33:21.332Z,97.86
2023-03-20T21:35:26.660Z,97.58
2023-03-20T21:39:57.000Z,97.63
2023-03-20T21:42:07.872Z,97.92
2023-03-20T21:44:17.590Z,97.86
2023-03-20T21:54:43.776Z,98.08
2023-03-20T21:56:48.842Z,98.15
2023-03-20T21:59:20.772Z,98.18
2023-03-20T22:01:45.927Z,98.20
2023-03-20T22:04:06.411Z,98.00
2023-03-20T22:09:30.964Z,97.73
2023-03-20T22:14:13.428Z,97.99
2023-03-20T22:19:18.456Z,97.71
2023-03-20T22:21:29.756Z,97.63
2023-03-20T22:26:04.744Z,97.75
2023-03-20T22:28:38.564Z,98.15
2023-03-20T22:33:39.080Z,97.83
2023-03-20T22:36:02.707Z,98.03
2023-03-20T22:42:55.842Z,97.53
2023-03-20T22:45:02.270Z,97.71
2023-03-20T22:47:10.774Z,97.57
2023-03-20T22:49:21.131Z,97.36
2023-03-20T22:51:34.057Z,97.27
2023-03-20T22:53:39.212Z,97.16
2023-03-20T22:55:45.837Z,97.34
2023-03-20T22:58:05.868Z,97.10
2023-03-20T23:00:16.402Z,97.11
2023-03-20T23:02:21.184Z,96.74
2023-03-20T23:04:30.100Z,97.00
2023-03-20T23:06:35.459Z,96.82
2023-03-20T23:08:49.076Z,96.55
2023-03-20T23:10:56.920Z,96.42
2023-03-20T23:13:02.242Z,96.43
2023-03-20T23:15:08.056Z,96.56
2023-03-20T23:17:12.963Z,96.11
2023-03-20T23:19:17.628Z,96.45
2023-03-20T23:21:26.758Z,96.48
2023-03-20T23:23:34.335Z,96.32
2023-03-20T23:25:48.564Z,96.10
2023-03-20T23:27:53.194Z,96.38
2023-03-20T23:29:57.964Z,96.28
2023-03-20T23:32:02.733Z,96.28
2023-03-20T23:34:09.750Z,96.50
2023-03-20T23:36:28.841Z,96.54
2023-03-20T23:38:43.524Z,96.49
2023-03-20T23:40:51.968Z,95.93
2023-03-20T23:42:56.748Z,95.72
2023-03-20T23:45:16.995Z,95.77
2023-03-20T23:47:27.598Z,95.74
2023-03-20T23:49:35.055Z,95.71
2023-03-20T23:51:42.506Z,95.88
2023-03-20T23:53:53.583Z,95.91
2023-03-20T23:56:09.705Z,95.95
2023-03-20T23:58:17.744Z,95.86
